sensor_id;sensor_type;location;lat;lon;timestamp;P1;durP1;ratioP1;P2;durP2;ratioP2
6215;SDS011;3141;49.234;9.326;2023-11-19T00:00:24;6.97;;;4.95;;
6215;SDS011;3141;49.234;9.326;2023-11-19T00:01:25;11.73;;;6.15;;
6215;SDS011;3141;49.234;9.326;2023-11-19T00:02:26;10.38;;;5.30;;
6215;SDS011;3141;49.234;9.326;2023-11-19T00:03:27;4.95;;;4.47;;
6215;SDS011;3141;49.234;9.326;2023-11-19T00:04:28;8.23;;;4.32;;
6215;SDS011;3141;49.234;9.326;2023-11-19T00:05:31;8.30;;;4.47;;
6215;SDS011;3141;49.234;9.326;2023-11-19T00:06:32;6.22;;;4.25;;
6215;SDS011;3141;49.234;9.326;2023-11-19T00:07:32;5.50;;;4.20;;
6215;SDS011;3141;49.234;9.326;2023-11-19T00:08:34;6.70;;;3.97;;
6215;SDS011;3141;49.234;9.326;2023-11-19T00:09:38;4.72;;;4.15;;
6215;SDS011;3141;49.234;9.326;2023-11-19T00:10:40;6.80;;;4.03;;
6215;SDS011;3141;49.234;9.326;2023-11-19T00:11:41;8.25;;;4.20;;
6215;SDS011;3141;49.234;9.326;2023-11-19T00:12:42;4.88;;;4.07;;
6215;SDS011;3141;49.234;9.326;2023-11-19T00:13:47;4.57;;;4.07;;
6215;SDS011;3141;49.234;9.326;2023-11-19T00:14:49;6.60;;;4.53;;
6215;SDS011;3141;49.234;9.326;2023-11-19T00:15:51;5.35;;;4.38;;
6215;SDS011;3141;49.234;9.326;2023-11-19T00:16:52;5.10;;;3.95;;
6215;SDS011;3141;49.234;9.326;2023-11-19T00:17:54;6.15;;;4.63;;
6215;SDS011;3141;49.234;9.326;2023-11-19T00:18:55;6.60;;;4.65;;
6215;SDS011;3141;49.234;9.326;2023-11-19T00:19:56;5.55;;;4.88;;
6215;SDS011;3141;49.234;9.326;2023-11-19T00:20:57;6.07;;;4.72;;
6215;SDS011;3141;49.234;9.326;2023-11-19T00:21:58;5.97;;;5.03;;
6215;SDS011;3141;49.234;9.326;2023-11-19T00:23:03;9.43;;;4.90;;
6215;SDS011;3141;49.234;9.326;2023-11-19T00:24:04;7.45;;;5.60;;
6215;SDS011;3141;49.234;9.326;2023-11-19T00:25:05;9.27;;;5.18;;
6215;SDS011;3141;49.234;9.326;2023-11-19T00:26:07;7.75;;;5.10;;
6215;SDS011;3141;49.234;9.326;2023-11-19T00:27:08;6.57;;;5.22;;
6215;SDS011;3141;49.234;9.326;2023-11-19T00:28:09;10.35;;;5.03;;
6215;SDS011;3141;49.234;9.326;2023-11-19T00:29:10;5.32;;;4.82;;
6215;SDS011;3141;49.234;9.326;2023-11-19T00:30:10;7.70;;;5.20;;
6215;SDS011;3141;49.234;9.326;2023-11-19T00:31:12;6.18;;;5.15;;
6215;SDS011;3141;49.234;9.326;2023-11-19T00:32:13;6.85;;;5.15;;
6215;SDS011;3141;49.234;9.326;2023-11-19T00:33:13;8.05;;;4.40;;
6215;SDS011;3141;49.234;9.326;2023-11-19T00:34:15;7.53;;;4.57;;
6215;SDS011;3141;49.234;9.326;2023-11-19T00:35:16;8.18;;;4.90;;
6215;SDS011;3141;49.234;9.326;2023-11-19T00:36:17;7.18;;;4.88;;
6215;SDS011;3141;49.234;9.326;2023-11-19T00:37:18;7.47;;;4.97;;
6215;SDS011;3141;49.234;9.326;2023-11-19T00:38:19;5.95;;;4.75;;
6215;SDS011;3141;49.234;9.326;2023-11-19T00:39:20;5.65;;;4.38;;
6215;SDS011;3141;49.234;9.326;2023-11-19T00:40:21;8.55;;;4.85;;
6215;SDS011;3141;49.234;9.326;2023-11-19T00:41:23;7.30;;;4.72;;
6215;SDS011;3141;49.234;9.326;2023-11-19T00:42:26;5.15;;;4.22;;
6215;SDS011;3141;49.234;9.326;2023-11-19T00:43:27;7.22;;;4.32;;
6215;SDS011;3141;49.234;9.326;2023-11-19T00:44:28;6.28;;;4.18;;
6215;SDS011;3141;49.234;9.326;2023-11-19T00:45:29;5.63;;;4.18;;
6215;SDS011;3141;49.234;9.326;2023-11-19T00:46:30;7.32;;;4.30;;
6215;SDS011;3141;49.234;9.326;2023-11-19T00:47:33;6.22;;;5.03;;
6215;SDS011;3141;49.234;9.326;2023-11-19T00:48:34;8.02;;;4.55;;
6215;SDS011;3141;49.234;9.326;2023-11-19T00:49:35;9.52;;;4.68;;
6215;SDS011;3141;49.234;9.326;2023-11-19T00:50:36;5.28;;;4.78;;
6215;SDS011;3141;49.234;9.326;2023-11-19T00:51:36;8.07;;;4.82;;
6215;SDS011;3141;49.234;9.326;2023-11-19T00:52:38;8.73;;;4.65;;
6215;SDS011;3141;49.234;9.326;2023-11-19T00:53:39;6.13;;;4.75;;
6215;SDS011;3141;49.234;9.326;2023-11-19T00:54:40;5.25;;;4.75;;
6215;SDS011;3141;49.234;9.326;2023-11-19T00:55:41;4.78;;;4.15;;
6215;SDS011;3141;49.234;9.326;2023-11-19T00:56:42;5.78;;;4.43;;
6215;SDS011;3141;49.234;9.326;2023-11-19T00:57:43;8.55;;;5.15;;
6215;SDS011;3141;49.234;9.326;2023-11-19T00:58:44;6.28;;;4.40;;
6215;SDS011;3141;49.234;9.326;2023-11-19T00:59:46;5.07;;;4.25;;
6215;SDS011;3141;49.234;9.326;2023-11-19T01:00:48;6.32;;;4.35;;
6215;SDS011;3141;49.234;9.326;2023-11-19T01:01:49;6.90;;;5.15;;
6215;SDS011;3141;49.234;9.326;2023-11-19T01:02:51;5.38;;;4.63;;
6215;SDS011;3141;49.234;9.326;2023-11-19T01:03:52;5.68;;;4.70;;
6215;SDS011;3141;49.234;9.326;2023-11-19T01:04:53;6.18;;;5.10;;
6215;SDS011;3141;49.234;9.326;2023-11-19T01:05:56;7.18;;;4.72;;
6215;SDS011;3141;49.234;9.326;2023-11-19T01:06:57;7.32;;;4.10;;
6215;SDS011;3141;49.234;9.326;2023-11-19T01:07:58;5.15;;;4.20;;
6215;SDS011;3141;49.234;9.326;2023-11-19T01:08:59;4.72;;;4.22;;
6215;SDS011;3141;49.234;9.326;2023-11-19T01:10:00;6.32;;;4.57;;
6215;SDS011;3141;49.234;9.326;2023-11-19T01:11:01;6.57;;;4.70;;
6215;SDS011;3141;49.234;9.326;2023-11-19T01:12:02;5.40;;;4.60;;
6215;SDS011;3141;49.234;9.326;2023-11-19T01:13:04;5.50;;;4.25;;
6215;SDS011;3141;49.234;9.326;2023-11-19T01:14:06;5.05;;;4.38;;
6215;SDS011;3141;49.234;9.326;2023-11-19T01:15:07;5.65;;;4.40;;
6215;SDS011;3141;49.234;9.326;2023-11-19T01:16:09;6.95;;;4.75;;
6215;SDS011;3141;49.234;9.326;2023-11-19T01:17:10;6.07;;;4.60;;
6215;SDS011;3141;49.234;9.326;2023-11-19T01:18:11;6.43;;;4.65;;
6215;SDS011;3141;49.234;9.326;2023-11-19T01:19:12;6.43;;;5.00;;
6215;SDS011;3141;49.234;9.326;2023-11-19T01:20:12;6.60;;;4.72;;
6215;SDS011;3141;49.234;9.326;2023-11-19T01:21:14;6.70;;;5.20;;
6215;SDS011;3141;49.234;9.326;2023-11-19T01:22:15;6.35;;;5.32;;
6215;SDS011;3141;49.234;9.326;2023-11-19T01:23:16;8.95;;;5.50;;
6215;SDS011;3141;49.234;9.326;2023-11-19T01:24:17;8.05;;;6.03;;
6215;SDS011;3141;49.234;9.326;2023-11-19T01:25:18;8.40;;;5.75;;
6215;SDS011;3141;49.234;9.326;2023-11-19T01:26:19;7.15;;;5.85;;
6215;SDS011;3141;49.234;9.326;2023-11-19T01:27:20;9.98;;;5.82;;
6215;SDS011;3141;49.234;9.326;2023-11-19T01:28:21;8.57;;;6.60;;
6215;SDS011;3141;49.234;9.326;2023-11-19T01:29:22;9.23;;;6.60;;
6215;SDS011;3141;49.234;9.326;2023-11-19T01:30:23;9.77;;;6.88;;
6215;SDS011;3141;49.234;9.326;2023-11-19T01:31:24;7.45;;;6.07;;
6215;SDS011;3141;49.234;9.326;2023-11-19T01:32:25;8.05;;;6.25;;
6215;SDS011;3141;49.234;9.326;2023-11-19T01:33:26;8.20;;;6.30;;
6215;SDS011;3141;49.234;9.326;2023-11-19T01:34:28;11.23;;;6.55;;
6215;SDS011;3141;49.234;9.326;2023-11-19T01:35:29;13.13;;;6.72;;
6215;SDS011;3141;49.234;9.326;2023-11-19T01:36:31;7.63;;;6.40;;
6215;SDS011;3141;49.234;9.326;2023-11-19T01:37:32;8.80;;;6.55;;
6215;SDS011;3141;49.234;9.326;2023-11-19T01:38:33;8.38;;;5.97;;
6215;SDS011;3141;49.234;9.326;2023-11-19T01:39:35;13.50;;;6.82;;
6215;SDS011;3141;49.234;9.326;2023-11-19T01:40:36;6.72;;;6.03;;
6215;SDS011;3141;49.234;9.326;2023-11-19T01:41:37;11.95;;;7.72;;
6215;SDS011;3141;49.234;9.326;2023-11-19T01:42:39;10.02;;;6.68;;
6215;SDS011;3141;49.234;9.326;2023-11-19T01:43:41;8.85;;;7.10;;
6215;SDS011;3141;49.234;9.326;2023-11-19T01:44:42;11.10;;;6.97;;
6215;SDS011;3141;49.234;9.326;2023-11-19T01:45:43;9.45;;;6.35;;
6215;SDS011;3141;49.234;9.326;2023-11-19T01:46:44;8.57;;;6.80;;
6215;SDS011;3141;49.234;9.326;2023-11-19T01:47:50;6.80;;;6.10;;
6215;SDS011;3141;49.234;9.326;2023-11-19T01:48:52;9.05;;;6.38;;
6215;SDS011;3141;49.234;9.326;2023-11-19T01:49:53;8.05;;;5.90;;
6215;SDS011;3141;49.234;9.326;2023-11-19T01:50:54;8.30;;;6.05;;
6215;SDS011;3141;49.234;9.326;2023-11-19T01:51:56;7.28;;;5.72;;
6215;SDS011;3141;49.234;9.326;2023-11-19T01:52:58;8.57;;;5.95;;
6215;SDS011;3141;49.234;9.326;2023-11-19T01:54:00;8.05;;;6.18;;
6215;SDS011;3141;49.234;9.326;2023-11-19T01:55:02;7.55;;;5.30;;
6215;SDS011;3141;49.234;9.326;2023-11-19T01:56:04;8.85;;;5.90;;
6215;SDS011;3141;49.234;9.326;2023-11-19T01:57:09;10.07;;;5.90;;
6215;SDS011;3141;49.234;9.326;2023-11-19T01:58:11;7.50;;;6.22;;
6215;SDS011;3141;49.234;9.326;2023-11-19T01:59:13;9.10;;;6.13;;
6215;SDS011;3141;49.234;9.326;2023-11-19T02:00:15;8.13;;;6.63;;
6215;SDS011;3141;49.234;9.326;2023-11-19T02:01:17;9.82;;;7.53;;
6215;SDS011;3141;49.234;9.326;2023-11-19T02:02:18;11.90;;;6.78;;
6215;SDS011;3141;49.234;9.326;2023-11-19T02:03:21;13.38;;;7.00;;
6215;SDS011;3141;49.234;9.326;2023-11-19T02:04:22;10.10;;;6.85;;
6215;SDS011;3141;49.234;9.326;2023-11-19T02:05:23;9.45;;;6.32;;
6215;SDS011;3141;49.234;9.326;2023-11-19T02:06:24;10.30;;;7.15;;
6215;SDS011;3141;49.234;9.326;2023-11-19T02:07:26;8.55;;;6.72;;
6215;SDS011;3141;49.234;9.326;2023-11-19T02:08:27;11.38;;;7.38;;
6215;SDS011;3141;49.234;9.326;2023-11-19T02:09:28;10.23;;;7.28;;
6215;SDS011;3141;49.234;9.326;2023-11-19T02:10:30;10.75;;;6.70;;
6215;SDS011;3141;49.234;9.326;2023-11-19T02:11:32;10.55;;;6.18;;
6215;SDS011;3141;49.234;9.326;2023-11-19T02:12:33;9.07;;;6.22;;
6215;SDS011;3141;49.234;9.326;2023-11-19T02:13:36;9.48;;;7.70;;
6215;SDS011;3141;49.234;9.326;2023-11-19T02:14:38;8.40;;;6.93;;
6215;SDS011;3141;49.234;9.326;2023-11-19T02:15:40;10.93;;;7.35;;
6215;SDS011;3141;49.234;9.326;2023-11-19T02:16:42;12.43;;;7.78;;
6215;SDS011;3141;49.234;9.326;2023-11-19T02:17:42;9.48;;;7.43;;
6215;SDS011;3141;49.234;9.326;2023-11-19T02:18:43;8.13;;;7.18;;
6215;SDS011;3141;49.234;9.326;2023-11-19T02:19:44;9.55;;;7.68;;
6215;SDS011;3141;49.234;9.326;2023-11-19T02:20:46;11.73;;;7.47;;
6215;SDS011;3141;49.234;9.326;2023-11-19T02:21:46;12.95;;;8.13;;
6215;SDS011;3141;49.234;9.326;2023-11-19T02:22:48;11.05;;;7.80;;
6215;SDS011;3141;49.234;9.326;2023-11-19T02:23:50;10.52;;;8.07;;
6215;SDS011;3141;49.234;9.326;2023-11-19T02:24:54;9.85;;;7.82;;
6215;SDS011;3141;49.234;9.326;2023-11-19T02:26:02;9.73;;;7.40;;
6215;SDS011;3141;49.234;9.326;2023-11-19T02:27:15;10.68;;;7.40;;
6215;SDS011;3141;49.234;9.326;2023-11-19T02:28:26;8.98;;;6.80;;
6215;SDS011;3141;49.234;9.326;2023-11-19T02:29:27;11.98;;;7.85;;
6215;SDS011;3141;49.234;9.326;2023-11-19T02:30:28;10.10;;;7.65;;
6215;SDS011;3141;49.234;9.326;2023-11-19T02:31:29;8.50;;;6.38;;
6215;SDS011;3141;49.234;9.326;2023-11-19T02:32:30;11.93;;;8.40;;
6215;SDS011;3141;49.234;9.326;2023-11-19T02:33:32;10.85;;;7.93;;
6215;SDS011;3141;49.234;9.326;2023-11-19T02:34:33;9.60;;;7.43;;
6215;SDS011;3141;49.234;9.326;2023-11-19T02:35:34;11.65;;;7.90;;
6215;SDS011;3141;49.234;9.326;2023-11-19T02:36:35;9.55;;;7.97;;
6215;SDS011;3141;49.234;9.326;2023-11-19T02:37:36;10.68;;;8.35;;
6215;SDS011;3141;49.234;9.326;2023-11-19T02:38:37;11.23;;;8.30;;
6215;SDS011;3141;49.234;9.326;2023-11-19T02:39:38;10.60;;;8.30;;
6215;SDS011;3141;49.234;9.326;2023-11-19T02:40:39;11.50;;;8.13;;
6215;SDS011;3141;49.234;9.326;2023-11-19T02:41:40;12.68;;;8.43;;
6215;SDS011;3141;49.234;9.326;2023-11-19T02:42:41;11.65;;;7.93;;
6215;SDS011;3141;49.234;9.326;2023-11-19T02:43:42;11.52;;;7.70;;
6215;SDS011;3141;49.234;9.326;2023-11-19T02:44:44;13.15;;;8.40;;
6215;SDS011;3141;49.234;9.326;2023-11-19T02:45:46;9.63;;;7.88;;
6215;SDS011;3141;49.234;9.326;2023-11-19T02:46:47;10.25;;;7.95;;
6215;SDS011;3141;49.234;9.326;2023-11-19T02:47:49;10.23;;;8.00;;
6215;SDS011;3141;49.234;9.326;2023-11-19T02:48:50;12.27;;;8.40;;
6215;SDS011;3141;49.234;9.326;2023-11-19T02:49:51;11.40;;;8.43;;
6215;SDS011;3141;49.234;9.326;2023-11-19T02:50:54;11.32;;;8.20;;
6215;SDS011;3141;49.234;9.326;2023-11-19T02:51:55;11.23;;;8.10;;
6215;SDS011;3141;49.234;9.326;2023-11-19T02:52:56;10.82;;;8.23;;
6215;SDS011;3141;49.234;9.326;2023-11-19T02:53:57;13.02;;;8.48;;
6215;SDS011;3141;49.234;9.326;2023-11-19T02:54:58;10.10;;;7.97;;
6215;SDS011;3141;49.234;9.326;2023-11-19T02:56:00;10.57;;;8.13;;
6215;SDS011;3141;49.234;9.326;2023-11-19T02:57:20;14.32;;;8.05;;
6215;SDS011;3141;49.234;9.326;2023-11-19T02:58:21;9.50;;;7.82;;
6215;SDS011;3141;49.234;9.326;2023-11-19T02:59:24;10.65;;;7.47;;
6215;SDS011;3141;49.234;9.326;2023-11-19T03:00:28;12.80;;;8.00;;
6215;SDS011;3141;49.234;9.326;2023-11-19T03:01:36;11.25;;;7.45;;
6215;SDS011;3141;49.234;9.326;2023-11-19T03:02:39;11.18;;;8.02;;
6215;SDS011;3141;49.234;9.326;2023-11-19T03:03:45;12.10;;;7.70;;
6215;SDS011;3141;49.234;9.326;2023-11-19T03:04:50;11.32;;;7.70;;
6215;SDS011;3141;49.234;9.326;2023-11-19T03:05:51;12.02;;;7.45;;
6215;SDS011;3141;49.234;9.326;2023-11-19T03:06:52;9.75;;;7.03;;
6215;SDS011;3141;49.234;9.326;2023-11-19T03:07:53;13.32;;;7.65;;
6215;SDS011;3141;49.234;9.326;2023-11-19T03:08:55;11.45;;;7.72;;
6215;SDS011;3141;49.234;9.326;2023-11-19T03:09:56;12.40;;;8.20;;
6215;SDS011;3141;49.234;9.326;2023-11-19T03:10:57;11.07;;;8.60;;
6215;SDS011;3141;49.234;9.326;2023-11-19T03:11:58;15.23;;;9.35;;
6215;SDS011;3141;49.234;9.326;2023-11-19T03:12:58;11.02;;;8.32;;
6215;SDS011;3141;49.234;9.326;2023-11-19T03:14:02;12.50;;;8.40;;
6215;SDS011;3141;49.234;9.326;2023-11-19T03:15:03;13.40;;;8.90;;
6215;SDS011;3141;49.234;9.326;2023-11-19T03:16:05;15.27;;;9.23;;
6215;SDS011;3141;49.234;9.326;2023-11-19T03:17:06;12.60;;;8.98;;
6215;SDS011;3141;49.234;9.326;2023-11-19T03:18:07;14.20;;;9.00;;
6215;SDS011;3141;49.234;9.326;2023-11-19T03:19:09;12.25;;;9.43;;
6215;SDS011;3141;49.234;9.326;2023-11-19T03:20:10;15.35;;;8.95;;
6215;SDS011;3141;49.234;9.326;2023-11-19T03:21:15;17.63;;;10.05;;
6215;SDS011;3141;49.234;9.326;2023-11-19T03:22:16;13.75;;;9.35;;
6215;SDS011;3141;49.234;9.326;2023-11-19T03:23:17;13.88;;;9.60;;
6215;SDS011;3141;49.234;9.326;2023-11-19T03:24:18;16.10;;;10.32;;
6215;SDS011;3141;49.234;9.326;2023-11-19T03:25:20;14.05;;;10.25;;
6215;SDS011;3141;49.234;9.326;2023-11-19T03:26:21;13.07;;;9.50;;
6215;SDS011;3141;49.234;9.326;2023-11-19T03:27:22;15.30;;;11.57;;
6215;SDS011;3141;49.234;9.326;2023-11-19T03:28:23;13.38;;;9.90;;
6215;SDS011;3141;49.234;9.326;2023-11-19T03:29:24;15.32;;;10.02;;
6215;SDS011;3141;49.234;9.326;2023-11-19T03:30:26;15.82;;;10.35;;
6215;SDS011;3141;49.234;9.326;2023-11-19T03:31:28;14.10;;;9.52;;
6215;SDS011;3141;49.234;9.326;2023-11-19T03:32:30;15.85;;;10.63;;
6215;SDS011;3141;49.234;9.326;2023-11-19T03:33:36;16.17;;;10.40;;
6215;SDS011;3141;49.234;9.326;2023-11-19T03:34:38;16.65;;;11.30;;
6215;SDS011;3141;49.234;9.326;2023-11-19T03:35:38;15.75;;;10.70;;
6215;SDS011;3141;49.234;9.326;2023-11-19T03:36:41;17.90;;;11.00;;
6215;SDS011;3141;49.234;9.326;2023-11-19T03:37:43;15.77;;;10.82;;
6215;SDS011;3141;49.234;9.326;2023-11-19T03:38:44;17.50;;;11.57;;
6215;SDS011;3141;49.234;9.326;2023-11-19T03:39:45;16.40;;;11.65;;
6215;SDS011;3141;49.234;9.326;2023-11-19T03:40:46;16.52;;;10.70;;
6215;SDS011;3141;49.234;9.326;2023-11-19T03:41:47;15.18;;;10.57;;
6215;SDS011;3141;49.234;9.326;2023-11-19T03:42:47;17.77;;;11.10;;
6215;SDS011;3141;49.234;9.326;2023-11-19T03:43:48;17.73;;;11.23;;
6215;SDS011;3141;49.234;9.326;2023-11-19T03:44:49;16.73;;;11.07;;
6215;SDS011;3141;49.234;9.326;2023-11-19T03:45:50;19.52;;;11.23;;
6215;SDS011;3141;49.234;9.326;2023-11-19T03:46:51;16.42;;;10.73;;
6215;SDS011;3141;49.234;9.326;2023-11-19T03:47:52;18.17;;;11.80;;
6215;SDS011;3141;49.234;9.326;2023-11-19T03:48:53;15.50;;;11.48;;
6215;SDS011;3141;49.234;9.326;2023-11-19T03:49:55;16.20;;;11.23;;
6215;SDS011;3141;49.234;9.326;2023-11-19T03:50:56;15.43;;;11.18;;
6215;SDS011;3141;49.234;9.326;2023-11-19T03:51:57;18.05;;;11.25;;
6215;SDS011;3141;49.234;9.326;2023-11-19T03:52:58;13.75;;;10.82;;
6215;SDS011;3141;49.234;9.326;2023-11-19T03:53:59;19.73;;;10.73;;
6215;SDS011;3141;49.234;9.326;2023-11-19T03:55:00;16.23;;;10.75;;
6215;SDS011;3141;49.234;9.326;2023-11-19T03:56:01;17.73;;;10.80;;
6215;SDS011;3141;49.234;9.326;2023-11-19T03:57:03;16.90;;;11.35;;
6215;SDS011;3141;49.234;9.326;2023-11-19T03:58:04;17.13;;;11.35;;
6215;SDS011;3141;49.234;9.326;2023-11-19T03:59:05;16.65;;;10.20;;
6215;SDS011;3141;49.234;9.326;2023-11-19T04:00:06;14.77;;;10.23;;
6215;SDS011;3141;49.234;9.326;2023-11-19T04:01:13;17.80;;;11.32;;
6215;SDS011;3141;49.234;9.326;2023-11-19T04:02:14;16.58;;;11.85;;
6215;SDS011;3141;49.234;9.326;2023-11-19T04:03:16;16.00;;;11.23;;
6215;SDS011;3141;49.234;9.326;2023-11-19T04:04:17;18.88;;;12.65;;
6215;SDS011;3141;49.234;9.326;2023-11-19T04:05:19;17.67;;;11.57;;
6215;SDS011;3141;49.234;9.326;2023-11-19T04:06:20;17.55;;;12.10;;
6215;SDS011;3141;49.234;9.326;2023-11-19T04:07:21;20.52;;;12.80;;
6215;SDS011;3141;49.234;9.326;2023-11-19T04:08:22;16.20;;;12.10;;
6215;SDS011;3141;49.234;9.326;2023-11-19T04:09:23;17.73;;;12.38;;
6215;SDS011;3141;49.234;9.326;2023-11-19T04:10:24;16.92;;;12.32;;
6215;SDS011;3141;49.234;9.326;2023-11-19T04:11:25;16.92;;;11.95;;
6215;SDS011;3141;49.234;9.326;2023-11-19T04:12:26;16.90;;;12.15;;
6215;SDS011;3141;49.234;9.326;2023-11-19T04:13:27;17.13;;;12.18;;
6215;SDS011;3141;49.234;9.326;2023-11-19T04:14:28;17.05;;;12.77;;
6215;SDS011;3141;49.234;9.326;2023-11-19T04:15:28;17.25;;;11.95;;
6215;SDS011;3141;49.234;9.326;2023-11-19T04:16:29;18.98;;;12.73;;
6215;SDS011;3141;49.234;9.326;2023-11-19T04:17:30;18.38;;;12.30;;
6215;SDS011;3141;49.234;9.326;2023-11-19T04:18:31;15.45;;;12.35;;
6215;SDS011;3141;49.234;9.326;2023-11-19T04:19:32;17.38;;;12.48;;
6215;SDS011;3141;49.234;9.326;2023-11-19T04:20:34;19.40;;;12.32;;
6215;SDS011;3141;49.234;9.326;2023-11-19T04:21:35;18.77;;;12.60;;
6215;SDS011;3141;49.234;9.326;2023-11-19T04:22:36;16.63;;;12.90;;
6215;SDS011;3141;49.234;9.326;2023-11-19T04:23:37;18.75;;;12.52;;
6215;SDS011;3141;49.234;9.326;2023-11-19T04:24:37;17.02;;;12.90;;
6215;SDS011;3141;49.234;9.326;2023-11-19T04:25:38;18.33;;;11.60;;
6215;SDS011;3141;49.234;9.326;2023-11-19T04:26:42;18.08;;;13.13;;
6215;SDS011;3141;49.234;9.326;2023-11-19T04:27:45;16.50;;;12.02;;
6215;SDS011;3141;49.234;9.326;2023-11-19T04:28:48;18.38;;;12.38;;
6215;SDS011;3141;49.234;9.326;2023-11-19T04:29:49;14.77;;;11.55;;
6215;SDS011;3141;49.234;9.326;2023-11-19T04:30:51;17.17;;;12.52;;
6215;SDS011;3141;49.234;9.326;2023-11-19T04:31:52;15.85;;;11.43;;
6215;SDS011;3141;49.234;9.326;2023-11-19T04:32:53;16.77;;;12.30;;
6215;SDS011;3141;49.234;9.326;2023-11-19T04:33:54;16.33;;;12.15;;
6215;SDS011;3141;49.234;9.326;2023-11-19T04:34:56;19.00;;;12.63;;
6215;SDS011;3141;49.234;9.326;2023-11-19T04:35:57;15.35;;;11.45;;
6215;SDS011;3141;49.234;9.326;2023-11-19T04:36:57;22.35;;;12.30;;
6215;SDS011;3141;49.234;9.326;2023-11-19T04:38:01;19.85;;;12.13;;
6215;SDS011;3141;49.234;9.326;2023-11-19T04:39:02;15.00;;;11.93;;
6215;SDS011;3141;49.234;9.326;2023-11-19T04:40:09;15.63;;;11.60;;
6215;SDS011;3141;49.234;9.326;2023-11-19T04:41:12;14.50;;;11.73;;
6215;SDS011;3141;49.234;9.326;2023-11-19T04:42:15;15.98;;;11.63;;
6215;SDS011;3141;49.234;9.326;2023-11-19T04:43:17;15.40;;;12.13;;
6215;SDS011;3141;49.234;9.326;2023-11-19T04:44:18;15.70;;;11.73;;
6215;SDS011;3141;49.234;9.326;2023-11-19T04:45:19;16.95;;;11.70;;
6215;SDS011;3141;49.234;9.326;2023-11-19T04:46:21;13.95;;;10.25;;
6215;SDS011;3141;49.234;9.326;2023-11-19T04:47:22;14.48;;;10.77;;
6215;SDS011;3141;49.234;9.326;2023-11-19T04:48:23;12.02;;;8.73;;
6215;SDS011;3141;49.234;9.326;2023-11-19T04:49:25;14.32;;;11.35;;
6215;SDS011;3141;49.234;9.326;2023-11-19T04:50:27;14.55;;;10.07;;
6215;SDS011;3141;49.234;9.326;2023-11-19T04:51:28;7.07;;;5.38;;
6215;SDS011;3141;49.234;9.326;2023-11-19T04:52:29;10.73;;;6.90;;
6215;SDS011;3141;49.234;9.326;2023-11-19T04:53:30;3.42;;;2.80;;
6215;SDS011;3141;49.234;9.326;2023-11-19T04:54:31;3.75;;;2.92;;
6215;SDS011;3141;49.234;9.326;2023-11-19T04:55:32;4.93;;;3.45;;
6215;SDS011;3141;49.234;9.326;2023-11-19T04:56:34;8.32;;;5.05;;
6215;SDS011;3141;49.234;9.326;2023-11-19T04:57:37;9.13;;;6.00;;
6215;SDS011;3141;49.234;9.326;2023-11-19T04:58:38;6.38;;;4.63;;
6215;SDS011;3141;49.234;9.326;2023-11-19T04:59:40;8.57;;;4.60;;
6215;SDS011;3141;49.234;9.326;2023-11-19T05:00:42;5.68;;;4.45;;
6215;SDS011;3141;49.234;9.326;2023-11-19T05:01:46;3.60;;;3.00;;
6215;SDS011;3141;49.234;9.326;2023-11-19T05:02:48;3.55;;;2.55;;
6215;SDS011;3141;49.234;9.326;2023-11-19T05:03:49;3.20;;;2.80;;
6215;SDS011;3141;49.234;9.326;2023-11-19T05:04:51;4.05;;;2.28;;
6215;SDS011;3141;49.234;9.326;2023-11-19T05:05:52;2.33;;;2.22;;
6215;SDS011;3141;49.234;9.326;2023-11-19T05:06:53;5.38;;;2.45;;
6215;SDS011;3141;49.234;9.326;2023-11-19T05:07:54;2.22;;;1.95;;
6215;SDS011;3141;49.234;9.326;2023-11-19T05:08:56;2.90;;;2.40;;
6215;SDS011;3141;49.234;9.326;2023-11-19T05:09:58;2.60;;;2.40;;
6215;SDS011;3141;49.234;9.326;2023-11-19T05:11:00;2.47;;;2.03;;
6215;SDS011;3141;49.234;9.326;2023-11-19T05:12:00;2.97;;;2.60;;
6215;SDS011;3141;49.234;9.326;2023-11-19T05:13:02;2.97;;;2.50;;
6215;SDS011;3141;49.234;9.326;2023-11-19T05:14:03;4.00;;;2.55;;
6215;SDS011;3141;49.234;9.326;2023-11-19T05:15:05;2.28;;;2.08;;
6215;SDS011;3141;49.234;9.326;2023-11-19T05:16:06;4.13;;;2.60;;
6215;SDS011;3141;49.234;9.326;2023-11-19T05:17:07;2.33;;;2.13;;
6215;SDS011;3141;49.234;9.326;2023-11-19T05:18:08;2.40;;;2.00;;
6215;SDS011;3141;49.234;9.326;2023-11-19T05:19:09;5.30;;;2.60;;
6215;SDS011;3141;49.234;9.326;2023-11-19T05:20:10;2.33;;;2.15;;
6215;SDS011;3141;49.234;9.326;2023-11-19T05:21:13;3.97;;;2.60;;
6215;SDS011;3141;49.234;9.326;2023-11-19T05:22:14;3.88;;;2.30;;
6215;SDS011;3141;49.234;9.326;2023-11-19T05:23:15;2.88;;;2.20;;
6215;SDS011;3141;49.234;9.326;2023-11-19T05:24:16;2.50;;;2.00;;
6215;SDS011;3141;49.234;9.326;2023-11-19T05:25:18;5.57;;;2.17;;
6215;SDS011;3141;49.234;9.326;2023-11-19T05:26:20;3.65;;;2.25;;
6215;SDS011;3141;49.234;9.326;2023-11-19T05:27:22;2.85;;;2.13;;
6215;SDS011;3141;49.234;9.326;2023-11-19T05:28:24;4.85;;;2.30;;
6215;SDS011;3141;49.234;9.326;2023-11-19T05:29:26;2.20;;;2.00;;
6215;SDS011;3141;49.234;9.326;2023-11-19T05:30:27;2.40;;;1.75;;
6215;SDS011;3141;49.234;9.326;2023-11-19T05:31:28;2.88;;;2.30;;
6215;SDS011;3141;49.234;9.326;2023-11-19T05:32:29;4.25;;;2.05;;
6215;SDS011;3141;49.234;9.326;2023-11-19T05:33:30;3.03;;;1.83;;
6215;SDS011;3141;49.234;9.326;2023-11-19T05:34:31;3.65;;;1.90;;
6215;SDS011;3141;49.234;9.326;2023-11-19T05:35:32;2.35;;;2.13;;
6215;SDS011;3141;49.234;9.326;2023-11-19T05:36:33;2.47;;;2.00;;
6215;SDS011;3141;49.234;9.326;2023-11-19T05:37:34;2.40;;;2.10;;
6215;SDS011;3141;49.234;9.326;2023-11-19T05:38:35;3.55;;;1.80;;
6215;SDS011;3141;49.234;9.326;2023-11-19T05:39:37;2.30;;;1.77;;
6215;SDS011;3141;49.234;9.326;2023-11-19T05:40:38;6.15;;;2.17;;
6215;SDS011;3141;49.234;9.326;2023-11-19T05:41:40;3.50;;;2.10;;
6215;SDS011;3141;49.234;9.326;2023-11-19T05:42:41;6.38;;;2.03;;
6215;SDS011;3141;49.234;9.326;2023-11-19T05:43:42;2.75;;;1.90;;
6215;SDS011;3141;49.234;9.326;2023-11-19T05:44:43;2.60;;;1.55;;
6215;SDS011;3141;49.234;9.326;2023-11-19T05:45:44;5.03;;;2.38;;
6215;SDS011;3141;49.234;9.326;2023-11-19T05:46:45;2.30;;;2.10;;
6215;SDS011;3141;49.234;9.326;2023-11-19T05:47:46;2.35;;;1.75;;
6215;SDS011;3141;49.234;9.326;2023-11-19T05:48:47;2.30;;;2.10;;
6215;SDS011;3141;49.234;9.326;2023-11-19T05:49:48;5.78;;;2.17;;
6215;SDS011;3141;49.234;9.326;2023-11-19T05:50:49;2.25;;;2.00;;
6215;SDS011;3141;49.234;9.326;2023-11-19T05:51:50;1.95;;;1.70;;
6215;SDS011;3141;49.234;9.326;2023-11-19T05:52:51;4.53;;;1.88;;
6215;SDS011;3141;49.234;9.326;2023-11-19T05:53:53;2.33;;;2.05;;
6215;SDS011;3141;49.234;9.326;2023-11-19T05:54:56;2.40;;;1.73;;
6215;SDS011;3141;49.234;9.326;2023-11-19T05:55:57;2.10;;;1.90;;
6215;SDS011;3141;49.234;9.326;2023-11-19T05:56:58;2.20;;;1.80;;
6215;SDS011;3141;49.234;9.326;2023-11-19T05:57:59;2.67;;;1.50;;
6215;SDS011;3141;49.234;9.326;2023-11-19T05:59:00;2.03;;;1.80;;
6215;SDS011;3141;49.234;9.326;2023-11-19T06:00:02;2.22;;;2.13;;
6215;SDS011;3141;49.234;9.326;2023-11-19T06:01:06;2.88;;;1.38;;
6215;SDS011;3141;49.234;9.326;2023-11-19T06:02:07;1.73;;;1.60;;
6215;SDS011;3141;49.234;9.326;2023-11-19T06:03:09;2.85;;;1.65;;
6215;SDS011;3141;49.234;9.326;2023-11-19T06:04:10;1.67;;;1.40;;
6215;SDS011;3141;49.234;9.326;2023-11-19T06:05:11;2.35;;;1.52;;
6215;SDS011;3141;49.234;9.326;2023-11-19T06:06:12;1.98;;;1.50;;
6215;SDS011;3141;49.234;9.326;2023-11-19T06:07:13;2.15;;;1.30;;
6215;SDS011;3141;49.234;9.326;2023-11-19T06:08:16;2.50;;;1.50;;
6215;SDS011;3141;49.234;9.326;2023-11-19T06:09:17;1.38;;;1.27;;
6215;SDS011;3141;49.234;9.326;2023-11-19T06:10:19;6.28;;;1.25;;
6215;SDS011;3141;49.234;9.326;2023-11-19T06:11:21;1.70;;;1.55;;
6215;SDS011;3141;49.234;9.326;2023-11-19T06:12:22;1.40;;;1.30;;
6215;SDS011;3141;49.234;9.326;2023-11-19T06:13:23;1.13;;;1.10;;
6215;SDS011;3141;49.234;9.326;2023-11-19T06:14:24;1.95;;;1.10;;
6215;SDS011;3141;49.234;9.326;2023-11-19T06:15:26;2.60;;;1.30;;
6215;SDS011;3141;49.234;9.326;2023-11-19T06:16:30;1.33;;;1.23;;
6215;SDS011;3141;49.234;9.326;2023-11-19T06:17:31;1.58;;;1.48;;
6215;SDS011;3141;49.234;9.326;2023-11-19T06:18:31;2.95;;;1.23;;